createdAt,value
2023-05-05T00:00:47.853Z,9.83
2023-05-05T00:01:47.659Z,9.82
2023-05-05T00:02:47.761Z,9.84
2023-05-05T00:03:47.689Z,9.82
2023-05-05T00:04:47.609Z,9.83
2023-05-05T00:05:47.615Z,9.84
2023-05-05T00:06:47.584Z,9.77
2023-05-05T00:07:47.579Z,9.77
2023-05-05T00:08:47.610Z,9.74
2023-05-05T00:09:47.556Z,9.76
2023-05-05T00:10:47.535Z,9.76
2023-05-05T00:11:47.553Z,9.74
2023-05-05T00:12:47.574Z,9.73
2023-05-05T00:13:47.512Z,9.73
2023-05-05T00:14:47.495Z,9.65
2023-05-05T00:15:47.493Z,9.72
2023-05-05T00:16:47.554Z,9.73
2023-05-05T00:17:47.506Z,9.72
2023-05-05T00:18:47.474Z,9.61
2023-05-05T00:19:47.452Z,9.59
2023-05-05T00:20:47.698Z,9.58
2023-05-05T00:21:47.428Z,9.59
2023-05-05T00:22:47.425Z,9.62
2023-05-05T00:23:47.388Z,9.59
2023-05-05T00:24:47.406Z,9.59
2023-05-05T00:25:47.384Z,9.61
2023-05-05T00:26:47.361Z,9.64
2023-05-05T00:27:47.354Z,9.51
2023-05-05T00:28:47.352Z,9.61
2023-05-05T00:29:47.342Z,9.59
2023-05-05T00:30:47.571Z,9.47
2023-05-05T00:31:47.307Z,9.44
2023-05-05T00:32:47.360Z,9.43
2023-05-05T00:33:47.300Z,9.37
2023-05-05T00:34:47.299Z,9.41
2023-05-05T00:35:47.269Z,9.41
2023-05-05T00:36:47.265Z,9.40
2023-05-05T00:37:47.250Z,9.29
2023-05-05T00:38:47.238Z,9.21
2023-05-05T00:39:47.224Z,9.23
2023-05-05T00:40:47.246Z,9.25
2023-05-05T00:41:47.213Z,9.23
2023-05-05T00:42:47.205Z,9.19
2023-05-05T00:43:47.188Z,9.23
2023-05-05T00:44:47.182Z,9.18
2023-05-05T00:45:47.176Z,9.13
2023-05-05T00:46:47.183Z,9.21
2023-05-05T00:47:47.173Z,9.08
2023-05-05T00:48:47.153Z,9.14
2023-05-05T00:49:47.149Z,9.08
2023-05-05T00:50:47.132Z,9.11
2023-05-05T00:51:47.100Z,9.16
2023-05-05T00:52:47.104Z,9.00
2023-05-05T00:53:47.097Z,9.14
2023-05-05T00:54:47.094Z,8.99
2023-05-05T00:55:47.073Z,9.08
2023-05-05T00:56:47.078Z,9.03
2023-05-05T00:57:47.055Z,9.06
2023-05-05T00:58:47.049Z,9.08
2023-05-05T00:59:47.024Z,9.03
2023-05-05T01:00:47.018Z,9.08
2023-05-05T01:01:47.044Z,9.02
2023-05-05T01:02:47.130Z,9.04
2023-05-05T01:03:47.162Z,9.18
2023-05-05T01:04:46.983Z,9.14
2023-05-05T01:05:46.962Z,9.08
2023-05-05T01:06:46.951Z,9.06
2023-05-05T01:07:46.957Z,9.02
2023-05-05T01:08:46.957Z,9.16
2023-05-05T01:09:47.124Z,9.06
2023-05-05T01:10:46.931Z,9.03
2023-05-05T01:11:46.912Z,9.04
2023-05-05T01:12:46.926Z,9.04
2023-05-05T01:13:46.894Z,9.06
2023-05-05T01:14:46.869Z,9.00
2023-05-05T01:15:46.862Z,8.99
2023-05-05T01:16:46.878Z,8.95
2023-05-05T01:17:46.831Z,8.89
2023-05-05T01:18:46.817Z,8.89
2023-05-05T01:19:46.810Z,8.85
2023-05-05T01:20:46.806Z,8.87
2023-05-05T01:21:46.779Z,8.95
2023-05-05T01:22:46.809Z,8.92
2023-05-05T01:23:46.766Z,8.91
2023-05-05T01:24:46.767Z,8.78
2023-05-05T01:25:46.745Z,8.73
2023-05-05T01:26:46.735Z,8.82
2023-05-05T01:27:46.721Z,8.71
2023-05-05T01:28:46.725Z,8.84
2023-05-05T01:29:46.709Z,8.74
2023-05-05T01:30:46.696Z,8.81
2023-05-05T01:31:46.778Z,8.76
2023-05-05T01:32:46.709Z,8.82
2023-05-05T01:33:46.645Z,8.81
2023-05-05T01:34:46.651Z,8.81
2023-05-05T01:35:46.630Z,8.79
2023-05-05T01:36:46.855Z,8.82
2023-05-05T01:37:46.612Z,8.76
2023-05-05T01:38:46.602Z,8.89
2023-05-05T01:39:46.606Z,8.74
2023-05-05T01:40:46.788Z,8.81
2023-05-05T01:41:46.586Z,8.79
2023-05-05T01:42:46.553Z,8.81
2023-05-05T01:43:46.543Z,8.78
2023-05-05T01:44:46.547Z,8.76
2023-05-05T01:45:46.540Z,8.79
2023-05-05T01:46:46.516Z,8.81
2023-05-05T01:47:46.534Z,8.78
2023-05-05T01:48:46.492Z,8.82
2023-05-05T01:49:46.469Z,8.71
2023-05-05T01:50:46.471Z,8.78
2023-05-05T01:51:46.460Z,8.78
2023-05-05T01:52:46.444Z,8.73
2023-05-05T01:53:46.427Z,8.70
2023-05-05T01:54:46.415Z,8.66
2023-05-05T01:55:46.415Z,8.73
2023-05-05T01:56:46.419Z,8.70
2023-05-05T01:57:46.390Z,8.63
2023-05-05T01:58:46.378Z,8.71
2023-05-05T01:59:46.373Z,8.60
2023-05-05T02:00:46.415Z,8.58
2023-05-05T02:01:46.452Z,8.66
2023-05-05T02:02:46.511Z,8.63
2023-05-05T02:03:46.336Z,8.61
2023-05-05T02:04:46.330Z,8.63
2023-05-05T02:05:46.309Z,8.64
2023-05-05T02:06:46.291Z,8.56
2023-05-05T02:07:46.278Z,8.61
2023-05-05T02:08:46.280Z,8.51
2023-05-05T02:09:46.250Z,8.60
2023-05-05T02:10:46.253Z,8.48
2023-05-05T02:11:46.232Z,8.56
2023-05-05T02:12:46.253Z,8.55
2023-05-05T02:13:46.299Z,8.52
2023-05-05T02:14:46.208Z,8.42
2023-05-05T02:15:46.213Z,8.45
2023-05-05T02:16:46.194Z,8.42
2023-05-05T02:17:46.200Z,8.48
2023-05-05T02:18:46.174Z,8.51
2023-05-05T02:19:46.163Z,8.45
2023-05-05T02:20:46.145Z,8.46
2023-05-05T02:21:46.173Z,8.42
2023-05-05T02:22:46.123Z,8.34
2023-05-05T02:23:46.117Z,8.27
2023-05-05T02:24:46.329Z,8.24
2023-05-05T02:25:46.102Z,8.19
2023-05-05T02:26:46.100Z,8.26
2023-05-05T02:27:46.069Z,8.28
2023-05-05T02:28:46.067Z,8.28
2023-05-05T02:29:46.041Z,8.24
2023-05-05T02:30:46.030Z,8.28
2023-05-05T02:31:46.099Z,8.15
2023-05-05T02:32:46.041Z,8.20
2023-05-05T02:33:46.009Z,8.13
2023-05-05T02:34:45.984Z,8.23
2023-05-05T02:35:45.991Z,8.24
2023-05-05T02:36:46.012Z,8.20
2023-05-05T02:37:45.962Z,8.08
2023-05-05T02:38:45.945Z,8.10
2023-05-05T02:39:45.952Z,8.09
2023-05-05T02:40:45.929Z,8.13
2023-05-05T02:41:45.936Z,8.09
2023-05-05T02:42:45.940Z,8.09
2023-05-05T02:43:45.894Z,8.09
2023-05-05T02:44:45.887Z,8.09
2023-05-05T02:45:45.863Z,8.20
2023-05-05T02:46:45.919Z,8.15
2023-05-05T02:47:45.849Z,8.19
2023-05-05T02:48:45.867Z,8.23
2023-05-05T02:49:45.820Z,8.26
2023-05-05T02:50:45.806Z,8.15
2023-05-05T02:51:45.805Z,8.20
2023-05-05T02:52:45.790Z,8.23
2023-05-05T02:53:45.782Z,8.23
2023-05-05T02:54:45.765Z,8.18
2023-05-05T02:55:45.736Z,8.19
2023-05-05T02:56:45.731Z,8.34
2023-05-05T02:57:45.715Z,8.27
2023-05-05T02:58:45.707Z,8.19
2023-05-05T02:59:45.705Z,8.31
2023-05-05T03:00:45.690Z,8.20
2023-05-05T03:01:45.727Z,8.24
2023-05-05T03:02:45.767Z,8.24
2023-05-05T03:03:45.778Z,8.26
2023-05-05T03:04:45.675Z,8.28
2023-05-05T03:05:45.643Z,8.18
2023-05-05T03:06:45.635Z,8.13
2023-05-05T03:07:45.614Z,8.12
2023-05-05T03:08:45.607Z,8.13
2023-05-05T03:09:45.594Z,8.10
2023-05-05T03:10:45.588Z,8.09
2023-05-05T03:11:45.571Z,8.10
2023-05-05T03:12:45.832Z,8.20
2023-05-05T03:13:45.546Z,8.28
2023-05-05T03:14:45.534Z,8.26
2023-05-05T03:15:45.527Z,8.20
2023-05-05T03:16:45.603Z,8.20
2023-05-05T03:17:45.538Z,8.26
2023-05-05T03:18:45.485Z,8.27
2023-05-05T03:19:45.490Z,8.15
2023-05-05T03:20:45.482Z,8.24
2023-05-05T03:21:45.472Z,8.08
2023-05-05T03:22:45.448Z,8.16
2023-05-05T03:23:45.423Z,8.12
2023-05-05T03:24:45.415Z,8.13
2023-05-05T03:25:45.422Z,8.09
2023-05-05T03:26:45.416Z,8.05
2023-05-05T03:27:45.396Z,8.08
2023-05-05T03:28:45.377Z,8.05
2023-05-05T03:29:45.361Z,7.98
2023-05-05T03:30:45.349Z,8.00
2023-05-05T03:31:45.402Z,7.97
2023-05-05T03:32:45.368Z,8.00
2023-05-05T03:33:45.317Z,8.01
2023-05-05T03:34:45.315Z,8.05
2023-05-05T03:35:45.284Z,8.00
2023-05-05T03:36:45.312Z,7.98
2023-05-05T03:37:45.269Z,8.05
2023-05-05T03:38:45.256Z,8.03
2023-05-05T03:39:45.254Z,8.09
2023-05-05T03:40:45.241Z,8.06
2023-05-05T03:41:45.228Z,8.05
2023-05-05T03:42:45.253Z,8.01
2023-05-05T03:43:45.201Z,8.05
2023-05-05T03:44:45.205Z,8.09
2023-05-05T03:45:45.198Z,8.08
2023-05-05T03:46:45.194Z,8.03
2023-05-05T03:47:45.162Z,8.06
2023-05-05T03:48:45.208Z,8.00
2023-05-05T03:49:45.134Z,7.88
2023-05-05T03:50:45.155Z,7.94
2023-05-05T03:51:45.129Z,7.91
2023-05-05T03:52:45.115Z,7.87
2023-05-05T03:53:45.104Z,7.83
2023-05-05T03:54:45.082Z,7.91
2023-05-05T03:55:45.061Z,7.83
2023-05-05T03:56:45.073Z,7.97
2023-05-05T03:57:45.060Z,8.01
2023-05-05T03:58:45.055Z,8.00
2023-05-05T03:59:45.064Z,8.09
2023-05-05T04:00:45.040Z,8.12
2023-05-05T04:01:45.065Z,8.13
2023-05-05T04:02:45.060Z,8.08
2023-05-05T04:03:45.048Z,8.23
2023-05-05T04:04:44.972Z,8.26
2023-05-05T04:05:44.992Z,8.27
2023-05-05T04:06:45.004Z,8.23
2023-05-05T04:07:44.930Z,8.23
2023-05-05T04:08:44.984Z,8.20
2023-05-05T04:09:44.951Z,8.20
2023-05-05T04:10:44.941Z,8.20
2023-05-05T04:11:44.920Z,8.20
2023-05-05T04:12:44.968Z,8.06
2023-05-05T04:13:44.917Z,8.19
2023-05-05T04:14:44.878Z,8.19
2023-05-05T04:15:44.903Z,8.33
2023-05-05T04:16:44.877Z,8.44
2023-05-05T04:17:44.901Z,8.42
2023-05-05T04:18:44.849Z,8.44
2023-05-05T04:19:44.854Z,8.42
2023-05-05T04:20:44.845Z,8.52
2023-05-05T04:21:44.811Z,8.42
2023-05-05T04:22:44.784Z,8.44
2023-05-05T04:23:44.777Z,8.49
2023-05-05T04:24:44.778Z,8.48
2023-05-05T04:25:44.736Z,8.44
2023-05-05T04:26:44.741Z,8.44
2023-05-05T04:27:44.694Z,8.49
2023-05-05T04:28:44.690Z,8.41
2023-05-05T04:29:44.681Z,8.45
2023-05-05T04:30:44.666Z,8.53
2023-05-05T04:31:44.686Z,8.63
2023-05-05T04:32:44.687Z,8.78
2023-05-05T04:33:44.644Z,8.94
2023-05-05T04:34:44.621Z,8.94
2023-05-05T04:35:44.641Z,9.16
2023-05-05T04:36:44.622Z,9.19
2023-05-05T04:37:44.614Z,9.16
2023-05-05T04:38:44.908Z,9.39
2023-05-05T04:39:44.586Z,9.36
2023-05-05T04:40:44.602Z,9.39
2023-05-05T04:41:44.598Z,9.44
2023-05-05T04:42:44.543Z,9.47
2023-05-05T04:43:44.535Z,9.58
2023-05-05T04:44:44.554Z,9.54
2023-05-05T04:45:44.537Z,9.68
2023-05-05T04:46:44.548Z,9.69
2023-05-05T04:47:44.563Z,9.77
2023-05-05T04:48:44.495Z,9.65
2023-05-05T04:49:44.467Z,9.62
2023-05-05T04:50:44.465Z,9.66
2023-05-05T04:51:44.447Z,9.80
2023-05-05T04:52:44.437Z,9.68
2023-05-05T04:53:44.442Z,9.64
2023-05-05T04:54:44.444Z,9.69
2023-05-05T04:55:44.426Z,9.82
2023-05-05T04:56:44.435Z,9.92
2023-05-05T04:57:44.399Z,10.10
2023-05-05T04:58:44.367Z,10.33
2023-05-05T04:59:44.357Z,10.53
2023-05-05T05:00:44.391Z,10.71
2023-05-05T05:01:44.395Z,10.86
2023-05-05T05:02:44.481Z,10.93
2023-05-05T05:03:44.445Z,11.00
2023-05-05T05:04:44.349Z,11.11
2023-05-05T05:05:44.308Z,11.27
2023-05-05T05:06:44.305Z,11.43
2023-05-05T05:07:44.310Z,11.50
2023-05-05T05:08:44.306Z,11.41
2023-05-05T05:09:44.256Z,11.52
2023-05-05T05:10:44.267Z,11.52
2023-05-05T05:11:44.242Z,11.55
2023-05-05T05:12:44.306Z,11.57
2023-05-05T05:13:44.242Z,11.63
2023-05-05T05:14:44.258Z,11.62
2023-05-05T05:15:44.250Z,11.63
2023-05-05T05:16:44.220Z,11.83
2023-05-05T05:17:44.425Z,11.83
2023-05-05T05:18:44.174Z,11.65
2023-05-05T05:19:44.214Z,11.45
2023-05-05T05:20:44.147Z,11.45
2023-05-05T05:21:44.167Z,11.33
2023-05-05T05:22:44.138Z,11.43
2023-05-05T05:23:44.139Z,11.41
2023-05-05T05:24:44.158Z,11.50
2023-05-05T05:25:44.120Z,11.50
2023-05-05T05:26:44.100Z,11.48
2023-05-05T05:27:44.156Z,11.50
2023-05-05T05:28:44.126Z,11.57
2023-05-05T05:29:44.075Z,11.68
2023-05-05T05:30:44.129Z,11.83
2023-05-05T05:31:44.111Z,11.95
2023-05-05T05:32:44.085Z,12.06
2023-05-05T05:33:44.060Z,12.12
2023-05-05T05:34:44.027Z,12.31
2023-05-05T05:35:44.049Z,12.15
2023-05-05T05:36:43.997Z,12.28
2023-05-05T05:37:44.013Z,12.43
2023-05-05T05:38:43.991Z,12.42
2023-05-05T05:39:43.997Z,12.35
2023-05-05T05:40:43.975Z,12.40
2023-05-05T05:41:43.957Z,12.45
2023-05-05T05:42:43.949Z,12.31
2023-05-05T05:43:43.953Z,12.21
2023-05-05T05:44:44.002Z,12.29
2023-05-05T05:45:44.026Z,12.25
2023-05-05T05:46:43.957Z,12.37
2023-05-05T05:47:43.966Z,12.45
2023-05-05T05:48:43.933Z,12.61
2023-05-05T05:49:43.917Z,12.61
2023-05-05T05:50:43.933Z,12.76
2023-05-05T05:51:43.872Z,12.87
2023-05-05T05:52:43.878Z,13.01
2023-05-05T05:53:43.875Z,13.03
2023-05-05T05:54:43.841Z,13.23
2023-05-05T05:55:43.874Z,13.42
2023-05-05T05:56:43.833Z,13.49
2023-05-05T05:57:43.797Z,13.50
2023-05-05T05:58:43.797Z,13.42
2023-05-05T05:59:43.790Z,13.54
2023-05-05T06:00:43.805Z,13.53
2023-05-05T06:01:43.788Z,13.71
2023-05-05T06:02:43.911Z,13.62
2023-05-05T06:03:43.905Z,13.77
2023-05-05T06:04:43.842Z,13.85
2023-05-05T06:05:43.742Z,13.99
2023-05-05T06:06:43.777Z,13.93
2023-05-05T06:07:43.741Z,13.87
2023-05-05T06:08:43.745Z,14.08
2023-05-05T06:09:43.711Z,14.25
2023-05-05T06:10:43.708Z,14.33
2023-05-05T06:11:43.720Z,14.25
2023-05-05T06:12:43.729Z,14.43
2023-05-05T06:13:43.708Z,14.37
2023-05-05T06:14:43.695Z,14.43
2023-05-05T06:15:43.769Z,14.43
2023-05-05T06:16:43.724Z,14.44
2023-05-05T06:17:43.670Z,14.55
2023-05-05T06:18:43.638Z,14.66
2023-05-05T06:19:43.643Z,14.86
2023-05-05T06:20:43.660Z,14.84
2023-05-05T06:21:43.616Z,14.96
2023-05-05T06:22:43.621Z,14.99
2023-05-05T06:23:43.600Z,14.97
2023-05-05T06:24:43.599Z,15.02
2023-05-05T06:25:43.633Z,14.85
2023-05-05T06:26:43.587Z,14.94
2023-05-05T06:27:43.572Z,15.09
2023-05-05T06:28:43.578Z,15.35
2023-05-05T06:29:43.579Z,15.44
2023-05-05T06:30:43.563Z,15.64
2023-05-05T06:31:43.668Z,15.67
2023-05-05T06:32:43.615Z,15.61
2023-05-05T06:33:43.562Z,15.62
2023-05-05T06:34:43.527Z,15.79
2023-05-05T06:35:43.557Z,15.91
2023-05-05T06:36:43.547Z,15.90
2023-05-05T06:37:43.498Z,15.88
2023-05-05T06:38:43.516Z,15.94
2023-05-05T06:39:43.500Z,16.04
2023-05-05T06:40:43.478Z,15.98
2023-05-05T06:41:43.464Z,15.97
2023-05-05T06:42:43.460Z,16.04
2023-05-05T06:43:43.449Z,16.15
2023-05-05T06:44:43.459Z,16.24
2023-05-05T06:45:43.958Z,16.35
2023-05-05T06:46:43.490Z,16.46
2023-05-05T06:47:43.443Z,16.64
2023-05-05T06:48:43.504Z,16.65
2023-05-05T06:49:43.399Z,16.65
2023-05-05T06:50:43.408Z,16.78
2023-05-05T06:51:43.418Z,16.86
2023-05-05T06:52:43.421Z,16.89
2023-05-05T06:53:43.379Z,16.83
2023-05-05T06:54:43.388Z,16.91
2023-05-05T06:55:43.352Z,17.16
2023-05-05T06:56:43.355Z,17.34
2023-05-05T06:57:43.364Z,17.44
2023-05-05T06:58:43.341Z,17.29
2023-05-05T06:59:43.329Z,17.26
2023-05-05T07:00:43.429Z,17.09
2023-05-05T07:01:43.372Z,17.24
2023-05-05T07:02:43.403Z,17.06
2023-05-05T07:03:43.383Z,17.02
2023-05-05T07:04:43.463Z,17.05
2023-05-05T07:05:43.345Z,17.19
2023-05-05T07:06:43.313Z,17.23
2023-05-05T07:07:43.272Z,17.46
2023-05-05T07:08:43.313Z,17.52
2023-05-05T07:09:43.253Z,17.72
2023-05-05T07:10:43.288Z,17.82
2023-05-05T07:11:43.250Z,17.82
2023-05-05T07:12:43.280Z,17.87
2023-05-05T07:13:43.246Z,18.08
2023-05-05T07:14:43.215Z,18.15
2023-05-05T07:15:43.215Z,18.34
2023-05-05T07:16:43.223Z,18.10
2023-05-05T07:17:43.212Z,18.23
2023-05-05T07:18:43.199Z,18.18
2023-05-05T07:19:43.192Z,18.29
2023-05-05T07:20:43.349Z,18.33
2023-05-05T07:21:43.175Z,18.41
2023-05-05T07:22:43.173Z,18.59
2023-05-05T07:23:43.380Z,18.68
2023-05-05T07:24:43.161Z,18.55
2023-05-05T07:25:43.176Z,18.65
2023-05-05T07:26:43.168Z,18.70
2023-05-05T07:27:43.206Z,18.78
2023-05-05T07:28:43.230Z,18.92
2023-05-05T07:29:43.134Z,18.95
2023-05-05T07:30:43.145Z,18.99
2023-05-05T07:31:43.199Z,19.18
2023-05-05T07:32:43.154Z,19.33
2023-05-05T07:33:43.137Z,19.26
2023-05-05T07:34:43.122Z,19.34
2023-05-05T07:35:43.117Z,19.21
2023-05-05T07:36:43.170Z,19.15
2023-05-05T07:37:43.107Z,19.12
2023-05-05T07:38:43.169Z,19.14
2023-05-05T07:39:43.150Z,19.15
2023-05-05T07:40:43.090Z,19.02
2023-05-05T07:41:43.115Z,18.98
2023-05-05T07:42:43.073Z,19.02
2023-05-05T07:43:44.511Z,18.93
2023-05-05T07:44:43.074Z,19.04
2023-05-05T07:45:43.103Z,19.12
2023-05-05T07:46:43.088Z,19.29
2023-05-05T07:47:43.130Z,19.52
2023-05-05T07:48:43.099Z,19.64
2023-05-05T07:49:43.074Z,19.62
2023-05-05T07:50:43.028Z,19.85
2023-05-05T07:51:43.007Z,19.96
2023-05-05T07:52:49.991Z,20.09
2023-05-05T07:53:43.074Z,19.91
2023-05-05T07:54:43.091Z,19.81
2023-05-05T07:55:43.031Z,20.03
2023-05-05T07:56:43.077Z,19.94
2023-05-05T07:57:43.097Z,19.91
2023-05-05T07:58:42.997Z,20.04
2023-05-05T07:59:43.012Z,20.09
2023-05-05T08:00:43.021Z,20.06
2023-05-05T08:01:42.988Z,20.03
2023-05-05T08:02:43.101Z,19.99
2023-05-05T08:03:43.115Z,20.07
2023-05-05T08:04:43.156Z,20.11
2023-05-05T08:05:42.972Z,20.03
2023-05-05T08:06:42.989Z,20.09
2023-05-05T08:07:42.972Z,20.13
2023-05-05T08:08:42.998Z,20.40
2023-05-05T08:09:42.997Z,20.63
2023-05-05T08:10:42.965Z,20.58
2023-05-05T08:11:42.911Z,20.50
2023-05-05T08:12:42.967Z,20.21
2023-05-05T08:13:42.929Z,20.34
2023-05-05T08:14:42.908Z,20.32
2023-05-05T08:15:43.173Z,20.09
2023-05-05T08:16:42.954Z,19.88
2023-05-05T08:17:42.931Z,20.18
2023-05-05T08:18:42.904Z,20.26
2023-05-05T08:19:42.891Z,20.52
2023-05-05T08:20:42.888Z,20.56
2023-05-05T08:21:42.936Z,20.82
2023-05-05T08:22:42.893Z,21.06
2023-05-05T08:23:43.120Z,21.20
2023-05-05T08:24:42.984Z,21.42
2023-05-05T08:25:42.876Z,21.58
2023-05-05T08:26:42.856Z,21.67
2023-05-05T08:27:42.888Z,21.85
2023-05-05T08:28:42.884Z,21.64
2023-05-05T08:29:42.849Z,21.48
2023-05-05T08:30:42.887Z,21.60
2023-05-05T08:31:42.982Z,21.61
2023-05-05T08:32:42.867Z,21.60
2023-05-05T08:33:42.843Z,21.89
2023-05-05T08:34:42.837Z,22.00
2023-05-05T08:35:42.856Z,21.88
2023-05-05T08:36:42.861Z,22.14
2023-05-05T08:37:42.829Z,22.22
2023-05-05T08:38:42.824Z,22.13
2023-05-05T08:39:42.850Z,22.15
2023-05-05T08:40:43.036Z,22.15
2023-05-05T08:41:42.791Z,21.93
2023-05-05T08:42:42.801Z,21.85
2023-05-05T08:43:42.813Z,22.04
2023-05-05T08:44:42.841Z,22.06
2023-05-05T08:45:42.802Z,22.29
2023-05-05T08:46:42.811Z,22.54
2023-05-05T08:47:42.909Z,22.70
2023-05-05T08:48:42.814Z,22.90
2023-05-05T08:49:42.957Z,23.06
2023-05-05T08:50:42.777Z,23.09
2023-05-05T08:51:42.810Z,23.00
2023-05-05T08:52:42.859Z,23.06
2023-05-05T08:53:42.765Z,22.70
2023-05-05T08:54:42.805Z,22.25
2023-05-05T08:55:42.786Z,21.89
2023-05-05T08:56:42.878Z,22.02
2023-05-05T08:57:42.790Z,22.20
2023-05-05T08:58:42.956Z,22.39
2023-05-05T08:59:42.722Z,22.44
2023-05-05T09:00:42.742Z,22.59
2023-05-05T09:01:42.767Z,22.84
2023-05-05T09:02:43.104Z,22.93
2023-05-05T09:03:43.629Z,22.93
2023-05-05T09:04:42.900Z,23.06
2023-05-05T09:05:42.745Z,23.20
2023-05-05T09:06:42.739Z,23.32
2023-05-05T09:07:42.720Z,23.39
2023-05-05T09:08:42.715Z,23.21
2023-05-05T09:09:42.730Z,23.31
2023-05-05T09:10:42.813Z,23.00
2023-05-05T09:11:42.683Z,22.78
2023-05-05T09:12:42.893Z,22.76
2023-05-05T09:13:42.672Z,22.90
2023-05-05T09:14:42.715Z,22.87
2023-05-05T09:15:42.664Z,22.81
2023-05-05T09:16:42.738Z,22.94
2023-05-05T09:17:42.706Z,23.18
2023-05-05T09:18:42.687Z,23.32
2023-05-05T09:19:42.672Z,23.59
2023-05-05T09:20:42.654Z,23.44
2023-05-05T09:21:42.653Z,23.59
2023-05-05T09:22:42.701Z,23.81
2023-05-05T09:23:42.865Z,24.05
2023-05-05T09:24:42.840Z,23.93
2023-05-05T09:25:42.657Z,23.86
2023-05-05T09:26:42.660Z,23.62
2023-05-05T09:27:42.667Z,23.62
2023-05-05T09:28:42.780Z,23.69
2023-05-05T09:29:42.629Z,23.50
2023-05-05T09:30:42.661Z,23.50
2023-05-05T09:31:42.670Z,23.44
2023-05-05T09:32:42.845Z,23.08
2023-05-05T09:33:42.637Z,22.99
2023-05-05T09:34:42.635Z,22.69
2023-05-05T09:35:42.636Z,22.68
2023-05-05T09:36:42.647Z,22.84
2023-05-05T09:37:42.612Z,22.88
2023-05-05T09:38:42.616Z,23.13
2023-05-05T09:39:42.594Z,23.34
2023-05-05T09:40:42.805Z,23.40
2023-05-05T09:41:42.603Z,23.63
2023-05-05T09:42:42.623Z,23.77
2023-05-05T09:43:42.588Z,23.93
2023-05-05T09:44:42.704Z,24.11
2023-05-05T09:45:42.594Z,23.81
2023-05-05T09:46:42.769Z,23.66
2023-05-05T09:47:42.594Z,23.71
2023-05-05T09:48:42.598Z,23.77
2023-05-05T09:49:42.577Z,23.96
2023-05-05T09:50:42.561Z,24.21
2023-05-05T09:51:42.554Z,24.45
2023-05-05T09:52:42.600Z,24.54
2023-05-05T09:53:42.550Z,24.58
2023-05-05T09:54:42.572Z,24.70
2023-05-05T09:55:42.556Z,24.65
2023-05-05T09:56:42.558Z,24.69
2023-05-05T09:57:42.590Z,24.76
2023-05-05T09:58:42.783Z,24.51
2023-05-05T09:59:42.599Z,24.57
2023-05-05T10:00:42.636Z,24.57
2023-05-05T10:01:42.579Z,24.78
2023-05-05T10:02:42.598Z,24.74
2023-05-05T10:03:42.566Z,24.78
2023-05-05T10:04:42.604Z,24.33
2023-05-05T10:05:42.539Z,24.51
2023-05-05T10:06:42.655Z,24.40
2023-05-05T10:07:42.516Z,24.32
2023-05-05T10:08:42.570Z,24.23
2023-05-05T10:09:42.543Z,23.92
2023-05-05T10:10:42.498Z,24.10
2023-05-05T10:11:42.571Z,24.05
2023-05-05T10:12:42.549Z,23.86
2023-05-05T10:13:42.503Z,23.98
2023-05-05T10:14:42.551Z,24.08
2023-05-05T10:15:42.578Z,24.24
2023-05-05T10:16:42.731Z,24.42
2023-05-05T10:17:50.793Z,24.53
2023-05-05T10:18:42.618Z,24.48
2023-05-05T10:19:42.485Z,24.42
2023-05-05T10:20:42.466Z,24.24
2023-05-05T10:21:42.475Z,23.98
2023-05-05T10:22:42.483Z,23.83
2023-05-05T10:23:42.479Z,23.93
2023-05-05T10:24:42.476Z,23.76
2023-05-05T10:25:42.461Z,23.78
2023-05-05T10:26:42.488Z,23.88
2023-05-05T10:27:42.460Z,23.76
2023-05-05T10:28:42.472Z,23.96
2023-05-05T10:29:42.498Z,23.95
2023-05-05T10:30:42.454Z,24.13
2023-05-05T10:31:42.478Z,24.33
2023-05-05T10:33:42.557Z,24.70
2023-05-05T10:34:42.500Z,24.91
2023-05-05T10:35:42.525Z,24.88
2023-05-05T10:36:42.446Z,24.86
2023-05-05T10:37:42.410Z,24.76
2023-05-05T10:38:42.461Z,24.84
2023-05-05T10:39:42.478Z,24.89
2023-05-05T10:40:42.459Z,24.76
2023-05-05T10:41:42.444Z,24.58
2023-05-05T10:42:42.440Z,24.33
2023-05-05T10:43:42.430Z,24.47
2023-05-05T10:44:42.418Z,24.47
2023-05-05T10:45:42.550Z,24.54
2023-05-05T10:46:42.597Z,24.32
2023-05-05T10:47:42.408Z,23.87
2023-05-05T10:48:42.642Z,23.73
2023-05-05T10:49:42.387Z,23.66
2023-05-05T10:50:42.408Z,23.71
2023-05-05T10:51:42.412Z,23.87
2023-05-05T10:52:42.388Z,23.95
2023-05-05T10:53:42.443Z,24.02
2023-05-05T10:54:42.422Z,24.03
2023-05-05T10:55:42.384Z,24.13
2023-05-05T10:56:42.423Z,24.13
2023-05-05T10:57:42.431Z,24.20
2023-05-05T10:58:58.252Z,24.14
2023-05-05T10:59:42.475Z,24.23
2023-05-05T11:00:42.395Z,24.23
2023-05-05T11:01:42.373Z,24.40
2023-05-05T11:02:42.385Z,24.48
2023-05-05T11:03:42.415Z,24.55
2023-05-05T11:04:42.451Z,24.58
2023-05-05T11:05:42.363Z,24.74
2023-05-05T11:06:42.376Z,24.85
2023-05-05T11:07:42.337Z,25.01
2023-05-05T11:08:42.442Z,25.22
2023-05-05T11:09:42.354Z,25.29
2023-05-05T11:10:42.361Z,25.18
2023-05-05T11:11:42.342Z,25.01
2023-05-05T11:12:42.457Z,24.70
2023-05-05T11:13:42.406Z,24.50
2023-05-05T11:14:42.548Z,24.55
2023-05-05T11:15:42.333Z,24.58
2023-05-05T11:16:42.412Z,24.54
2023-05-05T11:17:42.361Z,24.35
2023-05-05T11:18:42.347Z,24.38
2023-05-05T11:19:42.319Z,24.47
2023-05-05T11:20:42.382Z,24.47
2023-05-05T11:21:42.293Z,24.55
2023-05-05T11:22:42.304Z,24.76
2023-05-05T11:23:42.321Z,24.78
2023-05-05T11:24:42.304Z,24.93
2023-05-05T11:25:42.307Z,25.07
2023-05-05T11:26:42.291Z,25.11
2023-05-05T11:27:42.319Z,25.21
2023-05-05T11:28:42.349Z,25.26
2023-05-05T11:29:42.298Z,25.31
2023-05-05T11:30:42.344Z,25.35
2023-05-05T11:31:42.353Z,25.36
2023-05-05T11:32:42.344Z,25.35
2023-05-05T11:33:42.298Z,25.54
2023-05-05T11:34:42.265Z,25.58
2023-05-05T11:35:42.287Z,25.65
2023-05-05T11:36:42.310Z,25.68
2023-05-05T11:37:42.308Z,25.47
2023-05-05T11:38:42.256Z,25.33
2023-05-05T11:39:42.265Z,24.88
2023-05-05T11:40:42.258Z,24.91
2023-05-05T11:41:42.315Z,24.96
2023-05-05T11:42:42.260Z,25.03
2023-05-05T11:43:42.258Z,25.01
2023-05-05T11:44:42.262Z,25.10
2023-05-05T11:45:42.260Z,25.21
2023-05-05T11:46:42.317Z,25.26
2023-05-05T11:47:42.282Z,25.36
2023-05-05T11:48:42.479Z,25.54
2023-05-05T11:49:42.220Z,25.58
2023-05-05T11:50:42.248Z,25.46
2023-05-05T11:51:42.221Z,25.50
2023-05-05T11:52:42.328Z,25.55
2023-05-05T11:53:42.242Z,25.53
2023-05-05T11:54:42.245Z,25.50
2023-05-05T11:55:42.255Z,25.48
2023-05-05T11:56:42.242Z,25.48
2023-05-05T11:57:42.214Z,25.54
2023-05-05T11:58:42.195Z,25.35
2023-05-05T11:59:42.187Z,25.22
2023-05-05T12:00:42.241Z,25.14
2023-05-05T12:01:42.265Z,25.11
2023-05-05T12:02:42.440Z,25.01
2023-05-05T12:03:42.355Z,24.93
2023-05-05T12:04:42.232Z,24.76
2023-05-05T12:05:42.222Z,24.74
2023-05-05T12:06:42.220Z,24.54
2023-05-05T12:07:42.196Z,24.57
2023-05-05T12:08:42.387Z,24.73
2023-05-05T12:09:42.207Z,24.76
2023-05-05T12:10:42.225Z,24.70
2023-05-05T12:11:42.155Z,24.68
2023-05-05T12:12:42.190Z,24.81
2023-05-05T12:13:42.187Z,24.80
2023-05-05T12:14:42.189Z,24.92
2023-05-05T12:15:42.208Z,24.86
2023-05-05T12:16:42.245Z,24.91
2023-05-05T12:17:42.216Z,24.95
2023-05-05T12:18:42.143Z,24.98
2023-05-05T12:19:42.144Z,25.03
2023-05-05T12:20:42.150Z,25.01
2023-05-05T12:21:42.175Z,24.60
2023-05-05T12:22:42.172Z,24.54
2023-05-05T12:23:42.146Z,24.54
2023-05-05T12:24:42.189Z,24.53
2023-05-05T12:25:42.148Z,24.43
2023-05-05T12:26:42.137Z,24.36
2023-05-05T12:27:42.115Z,24.35
2023-05-05T12:28:42.120Z,24.43
2023-05-05T12:29:42.116Z,24.51
2023-05-05T12:30:42.154Z,24.58
2023-05-05T12:31:42.154Z,24.66
2023-05-05T12:32:42.185Z,24.58
2023-05-05T12:33:42.101Z,24.70
2023-05-05T12:34:42.156Z,24.74
2023-05-05T12:35:42.142Z,24.78
2023-05-05T12:36:42.151Z,24.55
2023-05-05T12:37:42.113Z,24.65
2023-05-05T12:38:42.100Z,24.69
2023-05-05T12:39:42.094Z,24.73
2023-05-05T12:40:42.288Z,24.76
2023-05-05T12:41:42.113Z,24.70
2023-05-05T12:42:42.446Z,24.88
2023-05-05T12:43:42.113Z,24.85
2023-05-05T12:44:42.092Z,24.81
2023-05-05T12:45:42.107Z,24.77
2023-05-05T12:46:42.074Z,24.89
2023-05-05T12:47:42.178Z,24.76
2023-05-05T12:48:42.115Z,24.78
2023-05-05T12:49:42.126Z,24.63
2023-05-05T12:50:42.085Z,24.69
2023-05-05T12:51:42.071Z,24.55
2023-05-05T12:52:42.092Z,24.58
2023-05-05T12:53:42.035Z,24.45
2023-05-05T12:54:42.051Z,24.35
2023-05-05T12:55:42.039Z,24.36
2023-05-05T12:56:42.060Z,24.40
2023-05-05T12:57:42.072Z,24.40
2023-05-05T12:58:42.075Z,24.48
2023-05-05T12:59:42.022Z,24.48
2023-05-05T13:00:42.083Z,24.48
2023-05-05T13:01:42.304Z,24.57
2023-05-05T13:02:42.113Z,24.54
2023-05-05T13:03:42.096Z,24.55